createdAt,value
2023-04-05T00:00:15.724Z,74.80
2023-04-05T00:02:42.673Z,74.30
2023-04-05T00:05:10.038Z,75.20
2023-04-05T00:07:38.546Z,74.00
2023-04-05T00:10:05.622Z,75.30
2023-04-05T00:12:33.818Z,75.40
2023-04-05T00:15:05.958Z,75.00
2023-04-05T00:17:35.406Z,75.70
2023-04-05T00:20:07.942Z,74.60
2023-04-05T00:22:36.820Z,75.00
2023-04-05T00:25:03.803Z,75.40
2023-04-05T00:27:31.313Z,76.40
2023-04-05T00:29:58.635Z,75.30
2023-04-05T00:32:25.377Z,76.30
2023-04-05T00:34:52.073Z,75.50
2023-04-05T00:37:27.952Z,76.40
2023-04-05T00:39:55.236Z,77.10
2023-04-05T00:42:22.013Z,76.80
2023-04-05T00:44:49.300Z,76.60
2023-04-05T00:47:16.332Z,76.70
2023-04-05T00:49:43.294Z,76.10
2023-04-05T00:52:10.889Z,76.30
2023-04-05T00:54:39.545Z,75.60
2023-04-05T00:57:07.910Z,76.30
2023-04-05T00:59:35.011Z,75.90
2023-04-05T01:02:04.896Z,75.40
2023-04-05T01:04:32.876Z,76.70
2023-04-05T01:07:25.074Z,76.40
2023-04-05T01:09:56.206Z,76.00
2023-04-05T01:12:24.690Z,76.80
2023-04-05T01:14:52.280Z,76.40
2023-04-05T01:17:23.853Z,76.60
2023-04-05T01:19:53.372Z,75.60
2023-04-05T01:22:26.537Z,75.60
2023-04-05T01:24:57.730Z,76.60
2023-04-05T01:27:46.816Z,75.80
2023-04-05T01:30:16.425Z,76.20
2023-04-05T01:33:09.641Z,76.70
2023-04-05T01:35:41.536Z,75.80
2023-04-05T01:38:12.888Z,76.60
2023-04-05T01:40:43.425Z,76.10
2023-04-05T01:43:17.559Z,76.20
2023-04-05T01:45:44.949Z,77.40
2023-04-05T01:48:20.169Z,77.00
2023-04-05T01:50:46.884Z,77.30
2023-04-05T01:53:15.156Z,76.90
2023-04-05T01:55:42.414Z,78.10
2023-04-05T01:58:17.311Z,78.10
2023-04-05T02:00:44.529Z,78.10
2023-04-05T02:03:14.416Z,77.50
2023-04-05T02:05:43.758Z,77.20
2023-04-05T02:08:12.252Z,77.70
2023-04-05T02:10:40.981Z,78.60
2023-04-05T02:13:08.065Z,77.80
2023-04-05T02:15:35.854Z,77.80
2023-04-05T02:18:03.190Z,77.60
2023-04-05T02:20:29.971Z,77.10
2023-04-05T02:22:58.573Z,77.50
2023-04-05T02:25:25.854Z,78.00
2023-04-05T02:27:52.695Z,77.50
2023-04-05T02:30:23.120Z,77.70
2023-04-05T02:32:49.960Z,77.90
2023-04-05T02:35:17.497Z,77.70
2023-04-05T02:37:44.339Z,77.60
2023-04-05T02:40:12.789Z,77.30
2023-04-05T02:42:39.433Z,76.90
2023-04-05T02:45:06.468Z,78.60
2023-04-05T02:47:35.020Z,77.20
2023-04-05T02:50:02.084Z,77.00
2023-04-05T02:52:29.262Z,77.10
2023-04-05T02:54:56.265Z,77.00
2023-04-05T02:57:23.277Z,77.30
2023-04-05T02:59:52.752Z,78.10
2023-04-05T03:02:19.965Z,79.70
2023-04-05T03:04:46.662Z,78.30
2023-04-05T03:07:18.729Z,78.60
2023-04-05T03:09:50.672Z,78.40
2023-04-05T03:12:17.664Z,78.10
2023-04-05T03:14:47.966Z,78.40
2023-04-05T03:17:14.677Z,78.00
2023-04-05T03:19:46.483Z,77.80
2023-04-05T03:22:14.484Z,77.70
2023-04-05T03:24:44.164Z,78.60
2023-04-05T03:27:11.656Z,77.50
2023-04-05T03:29:38.364Z,79.10
2023-04-05T03:32:05.923Z,78.80
2023-04-05T03:34:32.620Z,78.60
2023-04-05T03:37:01.528Z,78.10
2023-04-05T03:39:28.305Z,78.80
2023-04-05T03:41:55.511Z,77.50
2023-04-05T03:44:23.840Z,77.80
2023-04-05T03:46:50.871Z,78.80
2023-04-05T03:49:17.632Z,77.90
2023-04-05T03:51:44.807Z,78.20
2023-04-05T03:54:11.819Z,78.70
2023-04-05T03:56:39.310Z,78.80
2023-04-05T03:59:07.092Z,77.70
2023-04-05T04:01:35.235Z,78.50
2023-04-05T04:04:02.656Z,79.00
2023-04-05T04:06:31.078Z,79.10
2023-04-05T04:08:57.805Z,78.70
2023-04-05T04:11:27.502Z,79.20
2023-04-05T04:13:55.376Z,78.60
2023-04-05T04:16:28.718Z,78.90
2023-04-05T04:18:56.132Z,78.60
2023-04-05T04:21:26.198Z,77.80
2023-04-05T04:23:55.753Z,77.80
2023-04-05T04:26:29.872Z,78.80
2023-04-05T04:28:59.634Z,78.20
2023-04-05T04:31:27.046Z,79.30
2023-04-05T04:33:56.045Z,79.50
2023-04-05T04:36:34.926Z,79.50
2023-04-05T04:39:06.569Z,79.90
2023-04-05T04:41:34.549Z,79.30
2023-04-05T04:44:04.475Z,79.10
2023-04-05T04:46:34.994Z,78.60
2023-04-05T04:49:06.280Z,78.40
2023-04-05T04:51:33.341Z,79.10
2023-04-05T04:54:01.782Z,78.00
2023-04-05T04:56:39.972Z,79.30
2023-04-05T04:59:06.978Z,79.20
2023-04-05T05:01:36.569Z,78.10
2023-04-05T05:04:04.301Z,78.30
2023-04-05T05:06:31.456Z,78.00
2023-04-05T05:09:00.781Z,78.50
2023-04-05T05:11:30.392Z,78.40
2023-04-05T05:13:58.326Z,77.50
2023-04-05T05:16:27.039Z,77.00
2023-04-05T05:18:57.161Z,76.90
2023-04-05T05:21:24.638Z,76.50
2023-04-05T05:23:51.856Z,75.70
2023-04-05T05:26:19.849Z,75.50
2023-04-05T05:28:48.958Z,75.00
2023-04-05T05:31:17.840Z,73.40
2023-04-05T05:33:49.799Z,73.80
2023-04-05T05:36:19.237Z,72.90
2023-04-05T05:38:46.293Z,69.70
2023-04-05T05:41:13.767Z,69.80
2023-04-05T05:43:42.994Z,68.30
2023-04-05T05:46:12.852Z,68.60
2023-04-05T05:48:41.256Z,69.20
2023-04-05T05:51:11.863Z,68.30
2023-04-05T05:53:39.019Z,68.10
2023-04-05T05:56:08.570Z,64.40
2023-04-05T05:58:37.860Z,67.70
2023-04-05T06:01:04.574Z,64.00
2023-04-05T06:03:31.919Z,64.30
2023-04-05T06:05:59.501Z,65.10
2023-04-05T06:08:27.790Z,67.00
2023-04-05T06:10:54.878Z,67.20
2023-04-05T06:13:24.087Z,66.90
2023-04-05T06:15:53.297Z,65.30
2023-04-05T06:18:21.924Z,66.80
2023-04-05T06:20:49.771Z,67.70
2023-04-05T06:23:16.442Z,67.50
2023-04-05T06:25:43.210Z,64.40
2023-04-05T06:28:09.812Z,61.70
2023-04-05T06:30:38.179Z,59.40
2023-04-05T06:33:13.337Z,64.60
2023-04-05T06:35:40.741Z,63.20
2023-04-05T06:38:09.723Z,61.10
2023-04-05T06:40:36.789Z,60.10
2023-04-05T06:43:05.608Z,60.00
2023-04-05T06:45:32.334Z,60.60
2023-04-05T06:48:00.948Z,60.70
2023-04-05T06:50:30.695Z,61.60
2023-04-05T06:52:57.311Z,61.60
2023-04-05T06:55:26.473Z,62.90
2023-04-05T06:57:54.407Z,62.70
2023-04-05T07:00:21.442Z,63.00
2023-04-05T07:02:50.058Z,63.60
2023-04-05T07:05:23.877Z,62.80
2023-04-05T07:07:52.931Z,62.80
2023-04-05T07:10:19.811Z,63.30
2023-04-05T07:12:49.720Z,63.20
2023-04-05T07:15:16.434Z,64.00
2023-04-05T07:17:43.663Z,63.40
2023-04-05T07:22:52.810Z,64.60
2023-04-05T07:25:22.802Z,64.40
2023-04-05T07:27:51.242Z,65.40
2023-04-05T07:30:17.875Z,65.60
2023-04-05T07:32:44.606Z,65.60
2023-04-05T07:35:13.234Z,65.40
2023-04-05T07:37:44.112Z,64.50
2023-04-05T07:40:11.157Z,65.00
2023-04-05T07:42:39.236Z,64.30
2023-04-05T07:45:09.013Z,64.50
2023-04-05T07:47:36.094Z,64.90
2023-04-05T07:50:04.480Z,63.90
2023-04-05T07:52:42.695Z,64.40
2023-04-05T07:55:10.447Z,64.70
2023-04-05T07:57:38.374Z,63.80
2023-04-05T08:00:11.789Z,63.40
2023-04-05T08:02:45.022Z,63.10
2023-04-05T08:05:14.473Z,63.00
2023-04-05T08:07:42.687Z,60.70
2023-04-05T08:10:11.118Z,59.40
2023-04-05T08:12:39.086Z,59.00
2023-04-05T08:15:06.456Z,59.60
2023-04-05T08:17:33.745Z,58.10
2023-04-05T08:20:01.384Z,58.70
2023-04-05T08:22:29.631Z,58.50
2023-04-05T08:24:56.590Z,58.50
2023-04-05T08:27:23.680Z,58.10
2023-04-05T08:29:50.395Z,59.10
2023-04-05T08:32:20.004Z,58.20
2023-04-05T08:34:46.768Z,58.00
2023-04-05T08:37:14.927Z,59.70
2023-04-05T08:39:41.651Z,62.90
2023-04-05T08:42:25.277Z,59.10
2023-04-05T08:44:52.475Z,59.00
2023-04-05T08:47:40.760Z,59.10
2023-04-05T08:50:09.644Z,56.10
2023-04-05T08:52:45.575Z,57.60
2023-04-05T08:55:13.598Z,56.60
2023-04-05T08:57:40.645Z,58.30
2023-04-05T09:00:08.776Z,56.00
2023-04-05T09:02:36.743Z,58.40
2023-04-05T09:05:03.526Z,57.00
2023-04-05T09:07:31.514Z,59.10
2023-04-05T09:09:59.875Z,58.70
2023-04-05T09:12:27.076Z,56.10
2023-04-05T09:14:54.818Z,58.90
2023-04-05T09:17:23.349Z,55.40
2023-04-05T09:19:50.739Z,55.50
2023-04-05T09:22:33.290Z,56.80
2023-04-05T09:25:04.419Z,56.50
2023-04-05T09:27:33.493Z,59.10
2023-04-05T09:30:01.406Z,56.20
2023-04-05T09:32:29.566Z,57.20
2023-04-05T09:35:04.131Z,55.60
2023-04-05T09:37:34.328Z,53.40
2023-04-05T09:40:06.436Z,55.20
2023-04-05T09:42:44.765Z,54.20
2023-04-05T09:45:11.585Z,53.80
2023-04-05T09:47:39.238Z,52.80
2023-04-05T09:50:15.685Z,54.60
2023-04-05T09:52:44.715Z,52.30
2023-04-05T09:55:11.834Z,54.40
2023-04-05T09:57:39.251Z,56.60
2023-04-05T10:00:06.362Z,54.10
2023-04-05T10:02:40.092Z,51.00
2023-04-05T10:05:07.731Z,55.10
2023-04-05T10:07:34.524Z,54.80
2023-04-05T10:10:01.871Z,54.90
2023-04-05T10:12:28.728Z,54.30
2023-04-05T10:14:57.671Z,55.20
2023-04-05T10:17:40.194Z,56.30
2023-04-05T10:20:17.198Z,53.90
2023-04-05T10:23:02.897Z,52.50
2023-04-05T10:25:42.420Z,52.20
2023-04-05T10:28:09.767Z,51.90
2023-04-05T10:30:38.085Z,49.70
2023-04-05T10:33:16.358Z,50.70
2023-04-05T10:36:19.518Z,53.30
2023-04-05T10:38:52.944Z,51.60
2023-04-05T10:41:22.339Z,53.20
2023-04-05T10:43:50.139Z,51.80
2023-04-05T10:46:21.603Z,52.70
2023-04-05T10:48:52.607Z,53.50
2023-04-05T10:51:25.092Z,53.70
2023-04-05T10:53:51.713Z,53.70
2023-04-05T10:56:21.059Z,53.90
2023-04-05T10:58:49.637Z,55.20
2023-04-05T11:01:17.660Z,54.90
2023-04-05T11:03:44.485Z,55.30
2023-04-05T11:06:30.756Z,55.90
2023-04-05T11:08:58.033Z,55.40
2023-04-05T11:11:27.758Z,54.50
2023-04-05T11:13:55.261Z,55.60
2023-04-05T11:16:22.828Z,53.60
2023-04-05T11:18:53.405Z,53.50
2023-04-05T11:21:25.919Z,53.90
2023-04-05T11:24:03.468Z,53.80
2023-04-05T11:26:50.064Z,55.00
2023-04-05T11:29:19.152Z,53.10
2023-04-05T11:32:01.661Z,53.40
2023-04-05T11:34:30.585Z,53.10
2023-04-05T11:36:57.490Z,53.80
2023-04-05T11:39:25.625Z,54.20
2023-04-05T11:41:56.813Z,51.80
2023-04-05T11:44:28.970Z,52.00
2023-04-05T11:46:56.105Z,52.20
2023-04-05T11:49:26.383Z,53.20
2023-04-05T11:51:58.059Z,51.60
2023-04-05T11:54:35.217Z,50.30
2023-04-05T11:57:02.583Z,53.60
2023-04-05T11:59:34.356Z,50.50
2023-04-05T12:02:10.404Z,51.70
2023-04-05T12:04:38.387Z,52.30
2023-04-05T12:07:10.315Z,51.80
2023-04-05T12:09:58.827Z,50.90
2023-04-05T12:12:25.669Z,51.20
2023-04-05T12:14:52.623Z,52.50
2023-04-05T12:17:37.304Z,52.50
2023-04-05T12:20:07.649Z,53.00
2023-04-05T12:22:35.155Z,53.10
2023-04-05T12:25:08.092Z,49.90
2023-04-05T12:27:37.867Z,49.30
2023-04-05T12:30:11.167Z,50.10
2023-04-05T12:32:56.294Z,51.30
2023-04-05T12:35:34.369Z,51.00
2023-04-05T12:38:01.688Z,50.10
2023-04-05T12:40:30.241Z,51.50
2023-04-05T12:43:20.858Z,52.10
2023-04-05T12:45:50.394Z,51.40
2023-04-05T12:48:27.700Z,51.30
2023-04-05T12:50:56.301Z,51.60
2023-04-05T12:53:33.888Z,51.30
2023-04-05T12:56:02.303Z,51.00
2023-04-05T12:58:42.746Z,49.70
2023-04-05T13:01:11.128Z,51.10
2023-04-05T13:03:39.295Z,51.80
2023-04-05T13:06:07.465Z,52.10
2023-04-05T13:08:37.716Z,51.70
2023-04-05T13:11:06.932Z,51.20
2023-04-05T13:13:34.752Z,51.40
2023-04-05T13:16:02.503Z,51.90
2023-04-05T13:18:29.629Z,50.30
2023-04-05T13:20:58.759Z,51.10
2023-04-05T13:23:25.442Z,51.80
2023-04-05T13:25:53.783Z,52.00
2023-04-05T13:28:21.495Z,52.10
2023-04-05T13:30:53.426Z,50.80
2023-04-05T13:33:23.989Z,51.80
2023-04-05T13:35:54.341Z,51.00
2023-04-05T13:38:30.336Z,49.80
2023-04-05T13:40:58.750Z,50.00
2023-04-05T13:43:29.289Z,50.80
2023-04-05T13:45:57.015Z,50.60
2023-04-05T13:48:26.128Z,49.10
2023-04-05T13:50:56.598Z,49.70
2023-04-05T13:53:23.631Z,49.90
2023-04-05T13:55:54.426Z,49.60
2023-04-05T13:58:21.491Z,51.00
2023-04-05T14:00:50.721Z,51.40
2023-04-05T14:03:17.603Z,51.50
2023-04-05T14:05:55.706Z,51.30
2023-04-05T14:08:23.140Z,52.80
2023-04-05T14:10:51.001Z,52.00
2023-04-05T14:13:17.792Z,51.80
2023-04-05T14:15:48.406Z,51.20
2023-04-05T14:18:18.936Z,51.10
2023-04-05T14:20:50.186Z,51.70
2023-04-05T14:23:17.874Z,51.70
2023-04-05T14:25:44.519Z,51.00
2023-04-05T14:28:11.183Z,51.30
2023-04-05T14:30:43.041Z,50.20
2023-04-05T14:33:13.257Z,51.50
2023-04-05T14:35:40.879Z,51.80
2023-04-05T14:38:08.104Z,51.90
2023-04-05T14:40:35.517Z,52.00
2023-04-05T14:43:03.183Z,51.00
2023-04-05T14:45:30.334Z,51.60
2023-04-05T14:48:03.726Z,51.90
2023-04-05T14:50:33.089Z,51.80
2023-04-05T14:53:05.803Z,52.40
2023-04-05T14:55:40.807Z,52.50
2023-04-05T14:58:08.026Z,52.20
2023-04-05T15:00:36.682Z,51.30
2023-04-05T15:03:04.942Z,51.40
2023-04-05T15:05:31.732Z,52.30
2023-04-05T15:08:01.584Z,51.10
2023-04-05T15:10:31.052Z,51.40
2023-04-05T15:12:58.025Z,52.60
2023-04-05T15:15:25.260Z,50.60
2023-04-05T15:17:53.221Z,51.60
2023-04-05T15:20:20.106Z,51.70
2023-04-05T15:22:47.241Z,52.00
2023-04-05T15:28:01.962Z,52.00
2023-04-05T15:30:38.715Z,52.10
2023-04-05T15:33:09.431Z,52.70
2023-04-05T15:35:37.933Z,50.90
2023-04-05T15:38:07.232Z,51.60
2023-04-05T15:40:35.835Z,52.40
2023-04-05T15:43:02.548Z,53.10
2023-04-05T15:45:29.246Z,52.40
2023-04-05T15:47:59.235Z,51.20
2023-04-05T15:50:32.816Z,52.10
2023-04-05T15:53:05.956Z,52.10
2023-04-05T15:55:32.738Z,52.30
2023-04-05T15:58:02.196Z,52.20
2023-04-05T16:00:28.991Z,53.10
2023-04-05T16:03:01.046Z,52.10
2023-04-05T16:05:30.675Z,52.90
2023-04-05T16:07:58.685Z,52.00
2023-04-05T16:10:26.770Z,52.50
2023-04-05T16:13:01.491Z,52.40
2023-04-05T16:15:30.027Z,52.40
2023-04-05T16:18:02.306Z,52.50
2023-04-05T16:20:32.995Z,52.50
2023-04-05T16:22:59.769Z,53.00
2023-04-05T16:25:31.442Z,53.00
2023-04-05T16:27:58.318Z,52.90
2023-04-05T16:30:26.056Z,52.10
2023-04-05T16:32:54.001Z,52.50
2023-04-05T16:35:21.252Z,52.80
2023-04-05T16:37:51.945Z,52.50
2023-04-05T16:40:21.622Z,52.80
2023-04-05T16:42:53.204Z,53.00
2023-04-05T16:45:22.136Z,53.10
2023-04-05T16:47:49.540Z,53.80
2023-04-05T16:50:18.155Z,53.80
2023-04-05T16:52:45.765Z,53.20
2023-04-05T16:55:16.541Z,53.00
2023-04-05T16:57:44.248Z,53.00
2023-04-05T17:00:19.336Z,53.30
2023-04-05T17:02:46.766Z,53.70
2023-04-05T17:05:18.230Z,54.30
2023-04-05T17:07:51.739Z,53.50
2023-04-05T17:10:22.025Z,53.00
2023-04-05T17:13:08.097Z,53.70
2023-04-05T17:15:38.456Z,53.70
2023-04-05T17:18:07.745Z,53.90
2023-04-05T17:20:35.296Z,54.30
2023-04-05T17:23:04.168Z,54.60
2023-04-05T17:25:36.223Z,54.60
2023-04-05T17:28:03.723Z,54.40
2023-04-05T17:30:38.262Z,54.90
2023-04-05T17:33:09.143Z,54.50
2023-04-05T17:35:36.905Z,54.80
2023-04-05T17:38:05.727Z,54.60
2023-04-05T17:40:34.915Z,54.00
2023-04-05T17:43:02.525Z,54.70
2023-04-05T17:45:39.424Z,54.90
2023-04-05T17:48:06.407Z,55.20
2023-04-05T17:50:37.101Z,55.00
2023-04-05T17:53:07.058Z,54.70
2023-04-05T17:55:35.046Z,54.90
2023-04-05T17:58:04.508Z,55.20
2023-04-05T18:00:31.360Z,55.10
2023-04-05T18:03:05.909Z,55.50
2023-04-05T18:05:40.128Z,55.10
2023-04-05T18:08:07.036Z,55.10
2023-04-05T18:10:38.229Z,55.00
2023-04-05T18:13:11.676Z,55.30
2023-04-05T18:15:39.995Z,55.40
2023-04-05T18:18:08.409Z,55.40
2023-04-05T18:20:48.789Z,55.50
2023-04-05T18:23:18.964Z,55.60
2023-04-05T18:25:50.101Z,56.10
2023-04-05T18:28:22.717Z,56.10
2023-04-05T18:30:55.170Z,56.10
2023-04-05T18:36:09.430Z,56.60
2023-04-05T18:41:21.362Z,56.10
2023-04-05T18:44:08.394Z,56.10
2023-04-05T18:46:37.931Z,56.60
2023-04-05T18:49:09.751Z,57.10
2023-04-05T18:51:49.391Z,56.90
2023-04-05T18:54:23.860Z,56.80
2023-04-05T18:56:53.099Z,57.30
2023-04-05T18:59:20.710Z,57.00
2023-04-05T19:01:50.956Z,57.10
2023-04-05T19:04:30.675Z,57.40
2023-04-05T19:07:04.096Z,57.50
2023-04-05T19:09:31.757Z,57.40
2023-04-05T19:12:01.571Z,57.20
2023-04-05T19:14:32.972Z,57.60
2023-04-05T19:17:01.516Z,57.60
2023-04-05T19:19:29.334Z,57.60
2023-04-05T19:22:04.675Z,58.10
2023-04-05T19:24:34.069Z,57.80
2023-04-05T19:27:04.020Z,58.20
2023-04-05T19:29:33.920Z,58.60
2023-04-05T19:32:05.066Z,58.60
2023-04-05T19:34:33.263Z,58.70
2023-04-05T19:37:06.041Z,58.90
2023-04-05T19:39:51.665Z,59.10
2023-04-05T19:42:19.596Z,59.00
2023-04-05T19:45:00.231Z,58.70
2023-04-05T19:47:28.274Z,58.70
2023-04-05T19:50:05.613Z,58.70
2023-04-05T19:52:50.382Z,59.10
2023-04-05T19:55:39.729Z,59.50
2023-04-05T19:58:08.293Z,59.20
2023-04-05T20:00:44.481Z,59.10
2023-04-05T20:03:35.770Z,59.60
2023-04-05T20:06:06.879Z,59.40
2023-04-05T20:08:46.371Z,59.80
2023-04-05T20:11:13.488Z,59.40
2023-04-05T20:13:45.280Z,59.50
2023-04-05T20:16:23.102Z,59.40
2023-04-05T20:18:54.804Z,59.60
2023-04-05T20:21:22.125Z,60.20
2023-04-05T20:26:33.569Z,60.60
2023-04-05T20:29:02.747Z,60.00
2023-04-05T20:31:39.343Z,60.20
2023-04-05T20:34:17.301Z,60.30
2023-04-05T20:36:59.452Z,60.80
2023-04-05T20:39:28.632Z,60.60
2023-04-05T20:41:56.567Z,61.60
2023-04-05T20:47:08.623Z,61.50
2023-04-05T20:49:40.068Z,61.20
2023-04-05T20:52:14.871Z,60.90
2023-04-05T20:57:26.350Z,61.50
2023-04-05T21:05:23.078Z,61.10
2023-04-05T21:07:52.282Z,61.70
2023-04-05T21:10:26.095Z,62.00
2023-04-05T21:13:32.882Z,62.40
2023-04-05T21:16:07.856Z,62.40
2023-04-05T21:18:49.520Z,62.30
2023-04-05T21:24:13.002Z,62.20
2023-04-05T21:26:44.104Z,62.40
2023-04-05T21:32:00.665Z,63.10
2023-04-05T21:34:28.387Z,63.20
2023-04-05T21:37:08.527Z,63.80
2023-04-05T21:39:41.783Z,63.30
2023-04-05T21:42:15.001Z,63.40
2023-04-05T21:44:53.605Z,63.50
2023-04-05T21:47:21.138Z,63.90
2023-04-05T21:49:49.552Z,63.20
2023-04-05T21:52:21.922Z,63.60
2023-04-05T21:54:49.688Z,63.90
2023-04-05T21:57:21.337Z,64.50
2023-04-05T21:59:48.373Z,64.50
2023-04-05T22:02:15.808Z,65.90
2023-04-05T22:04:51.341Z,65.70
2023-04-05T22:07:21.726Z,65.80
2023-04-05T22:09:57.245Z,65.40
2023-04-05T22:15:09.802Z,65.60
2023-04-05T22:17:43.720Z,66.10
2023-04-05T22:20:12.126Z,65.90
2023-04-05T22:22:46.034Z,66.40
2023-04-05T22:25:13.896Z,66.00
2023-04-05T22:27:49.745Z,66.50
2023-04-05T22:33:00.514Z,66.10
2023-04-05T22:35:27.773Z,65.90
2023-04-05T22:37:55.210Z,66.40
2023-04-05T22:40:27.803Z,66.30
2023-04-05T22:43:04.678Z,66.80
2023-04-05T22:45:34.668Z,66.30
2023-04-05T22:48:02.595Z,67.00
2023-04-05T22:50:36.426Z,67.20
2023-04-05T22:53:05.886Z,67.20
2023-04-05T22:55:32.532Z,66.80
2023-04-05T22:58:01.834Z,67.10
2023-04-05T23:00:37.878Z,67.10
2023-04-05T23:03:04.930Z,67.80
2023-04-05T23:05:34.116Z,67.80
2023-04-05T23:08:03.852Z,68.60
2023-04-05T23:10:32.397Z,69.20
2023-04-05T23:15:41.611Z,68.50
2023-04-05T23:18:08.790Z,68.30
2023-04-05T23:20:36.581Z,68.90
2023-04-05T23:23:03.621Z,68.90
2023-04-05T23:25:30.372Z,69.00
2023-04-05T23:28:00.422Z,69.00
2023-04-05T23:30:28.049Z,68.60
2023-04-05T23:35:39.695Z,68.50
2023-04-05T23:38:07.653Z,68.80
2023-04-05T23:40:34.650Z,68.50
2023-04-05T23:43:03.575Z,68.80
2023-04-05T23:45:34.394Z,68.40
2023-04-05T23:48:03.685Z,68.70
2023-04-05T23:50:31.468Z,68.80
2023-04-05T23:52:58.284Z,68.60
2023-04-05T23:55:25.159Z,69.30
2023-04-05T23:57:53.980Z,69.00
